Anaktuvuk Pass, Alaska
Current Conditions -  °F | °C
As of 9:16 AM on Tuesday 21 Oct 2014 (Local Time) from PAKP Reporting Station
Overcast Overcast  
Wind Chill: -17°   Ceiling: 7000
Heat Index: -11°   Visibility: 10mi
Dew Point: -14°   Wind: 8mph
Humidity: 79%   Direction: 40°NE
Pressure: 29.51"   Gusts: NA
Location:  68.14°N, 151.74°W
Report Text: PAKP 211716Z AUTO 04007KT 10SM BKN070 OVC085 M11/M14 A2951 RMK AO1
Loading
Personal Weather Stations






























Interactive Weather Map
Tropical Storm Tracking
New forecast layout! Learn more

10-Day Weather Forecast

Advertisements
Track Severe Weather on mobile